Time;durP1;ratioP1;P1;durP2;ratioP2;P2;SDS_P1;SDS_P2;PMS_P1;PMS_P2;Temp;Humidity;BMP_temperature;BMP_pressure;BME280_temperature;BME280_humidity;BME280_pressure;Samples;Min_cycle;Max_cycle;Signal;HPM_P1;HPM_P2
2021/04/10 00:00:23;;;;;;;1.77;1.40;;;12.60;1.00;;;;;;5052681;28;20470;-77
2021/04/10 00:02:50;;;;;;;2.40;1.40;;;12.70;1.00;;;;;;5049407;28;20493;-78
2021/04/10 00:05:20;;;;;;;2.60;1.40;;;12.70;1.00;;;;;;5055876;28;20539;-78
2021/04/10 00:07:47;;;;;;;1.47;1.10;;;12.80;1.00;;;;;;5051925;28;20457;-79
2021/04/10 00:10:15;;;;;;;2.47;1.33;;;12.70;1.00;;;;;;5056727;28;20477;-77
2021/04/10 00:12:42;;;;;;;2.43;1.37;;;12.70;1.00;;;;;;5041462;28;20478;-78
2021/04/10 00:15:14;;;;;;;2.53;1.50;;;12.60;1.00;;;;;;5053536;28;20478;-79
2021/04/10 00:17:41;;;;;;;2.27;1.30;;;12.60;1.00;;;;;;5060959;28;20462;-79
2021/04/10 00:20:12;;;;;;;1.90;1.37;;;12.50;1.00;;;;;;5063554;28;20457;-78
2021/04/10 00:22:39;;;;;;;2.13;1.23;;;12.50;1.00;;;;;;5053301;28;20482;-78
2021/04/10 00:25:09;;;;;;;2.43;1.73;;;12.50;1.00;;;;;;5059654;28;20938;-79
2021/04/10 00:27:37;;;;;;;2.60;1.00;;;12.40;1.00;;;;;;5054932;28;20856;-78
2021/04/10 00:30:05;;;;;;;2.30;1.20;;;12.30;1.00;;;;;;5051923;28;20457;-80
2021/04/10 00:32:33;;;;;;;1.77;1.20;;;12.40;1.00;;;;;;5047679;28;20467;-77
2021/04/10 00:35:00;;;;;;;1.57;1.20;;;12.50;1.00;;;;;;5050866;28;20491;-78
2021/04/10 00:37:28;;;;;;;2.70;1.33;;;12.40;1.00;;;;;;5045106;28;20458;-79
2021/04/10 00:39:55;;;;;;;2.13;1.40;;;12.40;1.00;;;;;;5060529;28;20462;-79
2021/04/10 00:42:22;;;;;;;1.90;1.50;;;12.40;1.00;;;;;;5050468;28;20488;-79
2021/04/10 00:44:49;;;;;;;2.20;1.20;;;12.30;1.00;;;;;;5053325;28;20613;-77
2021/04/10 00:47:17;;;;;;;1.50;1.20;;;12.20;1.00;;;;;;5056334;28;20448;-77
2021/04/10 00:49:45;;;;;;;1.80;1.00;;;12.20;1.00;;;;;;5055901;28;20451;-78
2021/04/10 00:52:14;;;;;;;2.70;1.70;;;12.30;1.00;;;;;;5052751;28;20483;-80
2021/04/10 00:54:41;;;;;;;1.50;1.00;;;12.30;1.00;;;;;;5053923;28;20470;-79
2021/04/10 00:57:09;;;;;;;1.50;1.10;;;12.30;1.00;;;;;;5059855;28;20510;-78
2021/04/10 00:59:36;;;;;;;2.17;1.20;;;12.20;1.00;;;;;;5058276;28;20493;-79
2021/04/10 01:02:05;;;;;;;1.57;1.00;;;12.20;1.00;;;;;;5049844;28;20539;-80
2021/04/10 01:04:32;;;;;;;1.60;1.03;;;12.20;1.00;;;;;;5058332;28;20628;-81
2021/04/10 01:07:00;;;;;;;2.00;1.20;;;12.30;1.00;;;;;;5057956;28;20830;-79
2021/04/10 01:09:28;;;;;;;1.63;1.20;;;12.20;1.00;;;;;;5057079;28;20477;-79
2021/04/10 01:12:13;;;;;;;1.37;1.10;;;12.10;1.00;;;;;;5060240;28;20541;-80
2021/04/10 01:14:53;;;;;;;1.43;1.33;;;12.20;1.00;;;;;;5060812;28;20495;-79
2021/04/10 01:17:26;;;;;;;1.77;1.10;;;12.30;1.00;;;;;;5053787;28;20466;-79
2021/04/10 01:20:10;;;;;;;1.20;0.83;;;12.20;1.00;;;;;;5056503;28;20458;-81
2021/04/10 01:23:16;;;;;;;1.07;1.03;;;12.30;1.00;;;;;;5060732;28;20481;-80
2021/04/10 01:26:03;;;;;;;1.20;1.10;;;12.20;1.00;;;;;;5028691;28;20466;-79
2021/04/10 01:28:51;;;;;;;2.50;1.03;;;12.20;1.00;;;;;;5053781;28;20472;-78
2021/04/10 01:31:21;;;;;;;1.50;1.10;;;12.10;1.00;;;;;;5055867;28;20468;-81
2021/04/10 01:33:52;;;;;;;3.83;1.30;;;12.00;1.00;;;;;;5051454;28;20487;-80
2021/04/10 01:36:23;;;;;;;3.03;1.10;;;11.90;1.00;;;;;;5044109;28;20568;-80
2021/04/10 01:38:52;;;;;;;2.40;1.10;;;12.00;1.00;;;;;;5058209;28;20731;-80
2021/04/10 01:41:22;;;;;;;4.50;0.90;;;12.00;1.00;;;;;;5042687;28;20471;-80
2021/04/10 01:43:52;;;;;;;3.13;1.03;;;12.10;1.00;;;;;;5058586;28;20471;-79
2021/04/10 01:46:21;;;;;;;1.23;1.13;;;12.00;1.00;;;;;;5046395;28;20463;-80
2021/04/10 01:48:51;;;;;;;1.40;1.30;;;12.10;1.00;;;;;;5041182;28;20456;-79
2021/04/10 01:51:18;;;;;;;2.57;1.00;;;12.10;1.00;;;;;;5057234;28;21371;-78
2021/04/10 01:53:48;;;;;;;2.17;1.10;;;12.10;1.00;;;;;;5037524;28;20543;-79
2021/04/10 01:56:19;;;;;;;1.60;1.00;;;12.20;1.00;;;;;;5048854;28;20474;-81
2021/04/10 01:58:47;;;;;;;1.43;1.30;;;12.20;1.00;;;;;;5051688;28;20460;-78
2021/04/10 02:01:16;;;;;;;3.37;1.00;;;12.20;1.00;;;;;;5059757;28;20463;-79
2021/04/10 02:03:44;;;;;;;5.83;0.90;;;12.30;1.00;;;;;;5053784;28;21033;-78
2021/04/10 02:06:14;;;;;;;0.83;0.80;;;12.20;1.00;;;;;;5045509;28;20572;-80
2021/04/10 02:08:42;;;;;;;1.97;0.97;;;12.20;1.00;;;;;;5050472;28;20457;-79
2021/04/10 02:11:11;;;;;;;2.30;0.80;;;12.20;1.00;;;;;;5060761;28;20646;-79
2021/04/10 02:13:39;;;;;;;3.33;1.00;;;12.20;1.00;;;;;;5061265;28;20553;-79
2021/04/10 02:16:07;;;;;;;1.60;0.97;;;12.20;1.00;;;;;;5058069;28;20471;-80
2021/04/10 02:18:36;;;;;;;3.13;1.00;;;12.30;1.00;;;;;;5046076;28;20539;-79
2021/04/10 02:21:07;;;;;;;1.03;0.93;;;12.30;1.00;;;;;;5060668;28;21260;-79
2021/04/10 02:23:35;;;;;;;1.33;0.90;;;12.20;1.00;;;;;;5054130;28;20480;-80
2021/04/10 02:26:02;;;;;;;1.70;1.00;;;12.20;1.00;;;;;;5061249;28;20466;-80
2021/04/10 02:28:30;;;;;;;0.80;0.80;;;12.20;1.00;;;;;;5055574;28;21020;-80
2021/04/10 02:30:59;;;;;;;1.03;0.90;;;12.20;1.00;;;;;;5074064;28;20839;-78
2021/04/10 02:33:31;;;;;;;1.20;1.10;;;12.10;1.00;;;;;;5052891;28;20472;-79
2021/04/10 02:36:01;;;;;;;1.20;0.90;;;12.00;1.00;;;;;;5059348;28;20516;-79
2021/04/10 02:38:32;;;;;;;2.93;1.03;;;11.80;1.00;;;;;;5051291;28;20468;-79
2021/04/10 02:41:07;;;;;;;2.63;1.10;;;11.90;1.00;;;;;;5055663;28;20450;-78
2021/04/10 02:43:38;;;;;;;1.53;0.90;;;12.00;1.00;;;;;;5060118;28;20485;-79
2021/04/10 02:46:08;;;;;;;1.63;1.10;;;11.90;1.00;;;;;;5062750;28;20869;-79
2021/04/10 02:48:39;;;;;;;2.30;0.90;;;11.90;1.00;;;;;;5054880;28;20526;-79
2021/04/10 02:51:09;;;;;;;3.63;0.93;;;12.00;1.00;;;;;;5053868;28;20464;-81
2021/04/10 02:53:38;;;;;;;2.17;1.00;;;12.00;1.00;;;;;;5061786;28;20489;-79
2021/04/10 02:56:07;;;;;;;5.10;1.00;;;12.00;1.00;;;;;;5063235;28;21047;-78
2021/04/10 02:58:35;;;;;;;1.87;1.00;;;12.00;1.00;;;;;;5059494;28;20952;-79
2021/04/10 03:01:03;;;;;;;0.93;0.77;;;12.10;2.40;;;;;;5051754;28;20478;-79
2021/04/10 03:03:32;;;;;;;1.30;1.10;;;12.20;1.00;;;;;;5060275;28;20478;-78
2021/04/10 03:06:02;;;;;;;2.10;1.10;;;12.20;1.00;;;;;;5047771;28;20462;-77
2021/04/10 03:08:30;;;;;;;2.83;1.30;;;12.10;1.00;;;;;;5055540;28;20868;-78
2021/04/10 03:10:58;;;;;;;1.97;0.90;;;12.20;1.00;;;;;;5054937;28;20465;-79
2021/04/10 03:13:25;;;;;;;2.30;0.90;;;12.20;1.00;;;;;;5044489;28;20484;-79
2021/04/10 03:15:54;;;;;;;2.10;0.90;;;12.10;1.00;;;;;;5045466;28;20545;-78
2021/04/10 03:18:23;;;;;;;1.37;1.00;;;12.10;1.00;;;;;;5047108;28;20458;-77
2021/04/10 03:20:50;;;;;;;2.10;1.00;;;12.10;1.00;;;;;;5052007;28;20463;-78
2021/04/10 03:23:17;;;;;;;1.07;0.90;;;12.30;1.00;;;;;;5046207;28;20477;-77
2021/04/10 03:25:45;;;;;;;1.80;0.93;;;12.30;1.00;;;;;;5051966;28;20463;-78
2021/04/10 03:28:13;;;;;;;1.50;1.00;;;12.40;1.00;;;;;;5051035;28;20455;-77
2021/04/10 03:30:41;;;;;;;0.70;0.70;;;12.40;1.00;;;;;;5052183;28;20460;-78
2021/04/10 03:33:10;;;;;;;1.53;0.80;;;12.30;1.00;;;;;;5057777;28;20561;-80
2021/04/10 03:35:37;;;;;;;1.33;1.00;;;12.30;1.00;;;;;;5058603;28;20504;-78
2021/04/10 03:38:05;;;;;;;3.03;1.03;;;12.20;1.00;;;;;;5061008;28;20552;-78
2021/04/10 03:40:32;;;;;;;1.27;0.97;;;12.30;1.00;;;;;;5053317;28;20526;-79
2021/04/10 03:43:00;;;;;;;2.83;0.93;;;12.40;1.00;;;;;;5059358;28;20478;-78
2021/04/10 03:45:27;;;;;;;3.60;1.13;;;12.50;1.00;;;;;;5063036;28;20435;-78
2021/04/10 03:47:56;;;;;;;1.33;1.00;;;12.40;1.00;;;;;;5045571;28;20570;-79
2021/04/10 03:50:24;;;;;;;3.10;0.87;;;12.50;1.00;;;;;;5045306;28;20477;-78
2021/04/10 03:52:52;;;;;;;1.80;1.00;;;12.50;1.50;;;;;;5054282;28;21030;-78
2021/04/10 03:55:19;;;;;;;3.13;1.00;;;12.40;1.00;;;;;;5052629;28;21076;-76
2021/04/10 03:57:47;;;;;;;2.60;0.80;;;12.30;1.00;;;;;;5047534;28;20449;-77
2021/04/10 04:00:16;;;;;;;2.30;0.90;;;12.40;1.30;;;;;;5054129;28;20458;-77
2021/04/10 04:02:43;;;;;;;1.40;0.70;;;12.40;2.40;;;;;;5050598;28;20480;-78
2021/04/10 04:05:12;;;;;;;2.43;0.90;;;12.40;2.70;;;;;;5054300;28;20444;-79
2021/04/10 04:07:39;;;;;;;1.90;0.93;;;12.40;2.80;;;;;;5053947;28;20455;-78
2021/04/10 04:10:07;;;;;;;1.23;0.90;;;12.20;3.20;;;;;;5057882;28;20459;-80
2021/04/10 04:12:35;;;;;;;1.20;1.10;;;12.20;4.40;;;;;;5054812;28;20471;-78
2021/04/10 04:15:02;;;;;;;1.40;0.90;;;12.20;3.90;;;;;;5060030;28;20504;-78
2021/04/10 04:17:31;;;;;;;0.93;0.80;;;12.10;4.10;;;;;;5057312;28;20469;-79
2021/04/10 04:19:58;;;;;;;2.10;1.03;;;12.20;6.10;;;;;;5052632;28;20464;-79
2021/04/10 04:22:25;;;;;;;1.13;0.80;;;12.10;15.20;;;;;;5057403;28;20473;-80
2021/04/10 04:24:52;;;;;;;4.17;0.90;;;12.10;5.00;;;;;;5060092;28;20449;-78
2021/04/10 04:27:20;;;;;;;1.83;0.90;;;12.20;6.40;;;;;;5052725;28;20457;-79
2021/04/10 04:29:47;;;;;;;1.80;1.00;;;12.30;7.60;;;;;;5054283;28;20809;-76
2021/04/10 04:32:15;;;;;;;1.73;0.90;;;12.30;6.80;;;;;;5048352;28;21079;-80
2021/04/10 04:34:43;;;;;;;1.40;0.93;;;12.40;8.40;;;;;;5055103;28;20453;-80
2021/04/10 04:37:10;;;;;;;0.87;0.80;;;12.40;6.90;;;;;;5056389;28;20477;-78
2021/04/10 04:39:37;;;;;;;0.93;0.93;;;12.40;7.20;;;;;;5046804;28;20464;-81
2021/04/10 04:42:06;;;;;;;2.00;0.90;;;12.30;6.10;;;;;;5054506;28;20561;-78
2021/04/10 04:44:33;;;;;;;1.07;0.90;;;12.00;4.60;;;;;;5051365;28;20467;-79
2021/04/10 04:47:00;;;;;;;0.80;0.80;;;12.10;6.10;;;;;;5047224;28;20451;-77
2021/04/10 04:49:27;;;;;;;1.60;1.30;;;12.10;6.50;;;;;;5055414;28;20553;-79
2021/04/10 04:51:57;;;;;;;1.10;1.00;;;12.10;7.80;;;;;;5052176;28;20524;-79
2021/04/10 04:54:24;;;;;;;2.53;1.00;;;12.10;11.00;;;;;;5071548;28;21835;-79
2021/04/10 04:56:51;;;;;;;6.50;0.90;;;12.10;14.40;;;;;;5057155;28;20473;-78
2021/04/10 04:59:18;;;;;;;2.80;0.90;;;12.00;21.60;;;;;;5055834;28;21236;-79
2021/04/10 05:01:46;;;;;;;1.83;0.90;;;12.10;27.60;;;;;;5051912;28;20508;-78
2021/04/10 05:04:13;;;;;;;2.87;1.23;;;12.00;31.60;;;;;;5048659;28;20448;-78
2021/04/10 05:06:40;;;;;;;0.83;0.83;;;12.00;37.90;;;;;;5056743;28;20459;-78
2021/04/10 05:09:09;;;;;;;2.30;1.87;;;12.00;43.00;;;;;;5058408;28;20449;-80
2021/04/10 05:11:37;;;;;;;2.70;0.97;;;11.90;47.60;;;;;;5046069;28;20481;-78
2021/04/10 05:14:04;;;;;;;1.83;1.00;;;12.00;50.80;;;;;;5055683;28;20543;-79
2021/04/10 05:16:31;;;;;;;2.90;1.00;;;12.00;50.60;;;;;;5052523;28;21158;-80
2021/04/10 05:18:59;;;;;;;1.73;1.00;;;11.80;48.50;;;;;;5055785;28;21053;-79
2021/04/10 05:21:26;;;;;;;1.23;0.90;;;11.50;52.70;;;;;;5054661;28;21314;-80
2021/04/10 05:23:53;;;;;;;1.30;1.00;;;11.60;54.70;;;;;;5060306;28;21311;-79
2021/04/10 05:26:21;;;;;;;2.70;1.17;;;11.50;55.30;;;;;;5054794;28;20465;-78
2021/04/10 05:28:48;;;;;;;3.10;1.00;;;11.60;54.00;;;;;;5048362;28;21206;-80
2021/04/10 05:31:15;;;;;;;1.37;0.83;;;11.50;54.50;;;;;;5050481;28;20461;-77
2021/04/10 05:33:44;;;;;;;2.30;1.00;;;11.40;52.90;;;;;;5053195;28;20487;-79
2021/04/10 05:36:11;;;;;;;1.33;1.00;;;11.30;51.90;;;;;;5055773;28;20480;-77
2021/04/10 05:38:38;;;;;;;0.97;0.83;;;11.30;55.20;;;;;;5054244;28;20461;-79
2021/04/10 05:41:07;;;;;;;3.53;1.27;;;11.40;54.50;;;;;;5058718;28;20470;-78
2021/04/10 05:43:35;;;;;;;2.20;1.20;;;11.10;53.70;;;;;;5056130;28;21040;-77
2021/04/10 05:46:03;;;;;;;3.80;1.40;;;11.10;53.30;;;;;;5056196;28;20556;-78
2021/04/10 05:48:31;;;;;;;1.00;0.80;;;11.00;54.40;;;;;;5051835;28;20560;-77
2021/04/10 05:50:58;;;;;;;2.20;1.10;;;11.10;53.50;;;;;;5053964;28;20465;-77
2021/04/10 05:53:26;;;;;;;1.00;0.90;;;11.10;53.10;;;;;;5051444;28;20483;-77
2021/04/10 05:55:54;;;;;;;0.90;0.90;;;11.30;50.40;;;;;;5048404;28;20497;-77
2021/04/10 05:58:22;;;;;;;2.37;1.07;;;11.40;48.80;;;;;;5062597;28;20550;-77
2021/04/10 06:00:50;;;;;;;1.20;0.90;;;11.40;46.50;;;;;;5052868;28;20524;-79
2021/04/10 06:03:19;;;;;;;1.03;0.80;;;11.30;45.80;;;;;;5061722;28;20526;-79
2021/04/10 06:05:47;;;;;;;1.73;1.13;;;11.40;47.60;;;;;;5044083;28;20881;-77
2021/04/10 06:08:15;;;;;;;14.93;1.93;;;11.40;44.60;;;;;;5055651;28;20468;-78
2021/04/10 06:10:42;;;;;;;1.30;0.90;;;11.50;47.10;;;;;;5054148;28;21114;-77
2021/04/10 06:13:10;;;;;;;1.57;0.97;;;11.50;47.60;;;;;;5051624;28;20487;-78
2021/04/10 06:15:37;;;;;;;1.80;1.30;;;11.50;46.40;;;;;;5055511;28;20471;-78
2021/04/10 06:18:06;;;;;;;4.03;1.10;;;11.50;58.10;;;;;;5045869;28;20210;-76
2021/04/10 06:20:33;;;;;;;0.90;0.90;;;11.60;59.20;;;;;;5052958;28;20463;-79
2021/04/10 06:23:01;;;;;;;1.00;0.90;;;11.60;60.20;;;;;;5056756;28;20502;-77
2021/04/10 06:25:28;;;;;;;1.30;1.03;;;11.70;52.40;;;;;;5048387;28;20456;-79
2021/04/10 06:27:55;;;;;;;2.40;1.00;;;11.70;50.80;;;;;;5056302;28;20468;-78
2021/04/10 06:30:23;;;;;;;0.90;0.80;;;11.40;51.40;;;;;;5048120;28;20486;-79
2021/04/10 06:32:51;;;;;;;4.30;1.07;;;11.50;53.20;;;;;;5040922;28;20506;-75
2021/04/10 06:35:19;;;;;;;2.30;0.90;;;11.40;72.70;;;;;;5047986;28;20456;-75
2021/04/10 06:37:46;;;;;;;1.50;0.83;;;11.30;56.20;;;;;;5049129;28;21071;-76
2021/04/10 06:40:13;;;;;;;1.13;1.00;;;11.30;57.80;;;;;;5046240;28;20473;-77
2021/04/10 06:42:41;;;;;;;3.40;0.90;;;11.20;58.20;;;;;;5045319;28;20612;-76
2021/04/10 06:45:10;;;;;;;3.17;1.00;;;11.10;62.20;;;;;;5043379;28;20897;-77
2021/04/10 06:47:38;;;;;;;1.10;0.90;;;11.30;63.00;;;;;;5053978;28;20445;-77
2021/04/10 06:50:07;;;;;;;0.87;0.83;;;11.40;61.10;;;;;;5048658;28;20454;-75
2021/04/10 06:52:39;;;;;;;2.27;0.90;;;11.40;59.50;;;;;;5058268;28;20519;-76
2021/04/10 06:55:10;;;;;;;1.10;1.00;;;11.50;60.30;;;;;;5047801;28;20456;-77
2021/04/10 06:57:48;;;;;;;1.57;0.90;;;11.40;59.50;;;;;;5046383;28;20458;-75
2021/04/10 07:00:16;;;;;;;0.80;0.80;;;11.40;61.40;;;;;;5043524;28;20471;-75
2021/04/10 07:02:45;;;;;;;2.00;1.07;;;11.30;61.90;;;;;;5041303;28;21293;-76
2021/04/10 07:05:13;;;;;;;0.80;0.80;;;11.40;62.40;;;;;;5042074;28;21338;-76
2021/04/10 07:07:42;;;;;;;1.10;1.00;;;11.40;61.30;;;;;;5050627;28;21390;-75
2021/04/10 07:10:11;;;;;;;1.30;1.10;;;11.40;63.20;;;;;;5052518;28;20977;-75
2021/04/10 07:12:38;;;;;;;1.63;1.07;;;11.30;62.80;;;;;;5048124;28;20222;-76
2021/04/10 07:15:07;;;;;;;1.60;0.97;;;11.20;69.00;;;;;;5055935;28;20465;-76
2021/04/10 07:17:35;;;;;;;1.10;0.97;;;11.40;67.00;;;;;;5046642;28;20489;-76
2021/04/10 07:20:24;;;;;;;0.90;0.90;;;11.20;69.00;;;;;;5050530;28;21064;-77
2021/04/10 07:23:04;;;;;;;2.10;0.80;;;11.40;70.50;;;;;;5050485;28;20493;-77
2021/04/10 07:25:34;;;;;;;1.57;0.90;;;11.30;69.20;;;;;;5048412;28;20457;-77
2021/04/10 07:28:26;;;;;;;1.07;0.90;;;11.40;72.60;;;;;;5045486;28;20459;-76
2021/04/10 07:31:03;;;;;;;1.90;1.10;;;11.50;69.30;;;;;;5048975;28;21006;-76
2021/04/10 07:33:32;;;;;;;2.20;1.50;;;11.20;78.00;;;;;;5045465;28;20556;-76
2021/04/10 07:36:01;;;;;;;1.07;0.70;;;11.10;83.70;;;;;;5045786;28;20649;-75
2021/04/10 07:38:31;;;;;;;1.40;1.00;;;11.20;91.10;;;;;;5040905;28;20484;-76
2021/04/10 07:41:02;;;;;;;1.37;1.10;;;11.10;94.90;;;;;;5042365;28;21117;-78
2021/04/10 07:43:31;;;;;;;1.50;1.03;;;11.20;99.90;;;;;;5047837;28;20480;-76
2021/04/10 07:46:20;;;;;;;0.90;0.90;;;11.30;99.90;;;;;;5060324;28;20959;-77
2021/04/10 07:49:02;;;;;;;1.47;1.10;;;11.40;99.90;;;;;;5049707;28;20474;-75
2021/04/10 07:51:30;;;;;;;2.30;0.90;;;11.60;99.90;;;;;;5051139;28;20896;-76
2021/04/10 07:53:59;;;;;;;4.07;1.03;;;11.50;99.90;;;;;;5040543;28;20462;-77
2021/04/10 07:56:26;;;;;;;3.53;1.13;;;11.30;99.90;;;;;;5041649;28;20480;-78
2021/04/10 07:59:01;;;;;;;1.47;1.00;;;11.30;99.90;;;;;;5043605;28;20489;-78
2021/04/10 08:01:28;;;;;;;1.60;1.17;;;11.20;99.90;;;;;;5050145;28;20468;-76
2021/04/10 08:04:13;;;;;;;1.20;1.10;;;11.10;99.90;;;;;;5043301;28;20498;-77
2021/04/10 08:06:53;;;;;;;1.10;1.00;;;11.10;99.90;;;;;;5040511;28;20447;-77
2021/04/10 08:09:32;;;;;;;1.33;0.80;;;11.10;99.90;;;;;;5041740;28;20458;-77
2021/04/10 08:12:00;;;;;;;2.07;1.13;;;11.00;99.90;;;;;;5037933;28;20472;-75
2021/04/10 08:14:40;;;;;;;1.27;1.00;;;11.10;99.90;;;;;;5041986;28;20957;-77
2021/04/10 08:17:07;;;;;;;2.07;0.97;;;11.20;99.90;;;;;;5038892;28;20492;-77
2021/04/10 08:19:35;;;;;;;0.83;0.83;;;11.10;99.90;;;;;;5040890;28;20459;-76
2021/04/10 08:22:04;;;;;;;1.40;0.97;;;11.10;99.90;;;;;;5042653;28;20581;-76
2021/04/10 08:24:35;;;;;;;1.10;1.00;;;11.10;99.90;;;;;;5050512;28;20460;-76
2021/04/10 08:27:05;;;;;;;1.20;1.10;;;11.10;99.90;;;;;;5049366;28;20500;-78
2021/04/10 08:29:32;;;;;;;1.53;0.90;;;10.80;99.90;;;;;;5058552;28;20572;-76
2021/04/10 08:32:01;;;;;;;1.30;0.97;;;10.90;99.90;;;;;;5053905;28;20478;-77
2021/04/10 08:34:28;;;;;;;1.40;1.30;;;11.20;99.90;;;;;;5058176;28;20465;-76
2021/04/10 08:36:57;;;;;;;1.10;1.00;;;11.40;99.90;;;;;;5041041;28;20515;-77
2021/04/10 08:39:30;;;;;;;0.90;0.90;;;11.50;99.90;;;;;;5042408;28;20466;-77
2021/04/10 08:41:59;;;;;;;1.30;1.20;;;11.60;99.90;;;;;;5053145;28;21019;-76
2021/04/10 08:44:30;;;;;;;1.17;0.90;;;11.70;99.90;;;;;;5055546;28;20446;-78
2021/04/10 08:46:58;;;;;;;0.70;0.70;;;11.60;99.90;;;;;;5043920;28;20461;-75
2021/04/10 08:49:28;;;;;;;0.80;0.80;;;11.60;99.90;;;;;;5047654;28;20533;-76
2021/04/10 08:52:02;;;;;;;2.30;1.00;;;11.70;99.90;;;;;;5049479;28;20548;-77
2021/04/10 08:54:33;;;;;;;2.20;0.80;;;11.70;99.90;;;;;;5044980;28;20493;-76
2021/04/10 08:57:06;;;;;;;1.27;1.10;;;11.50;99.90;;;;;;5046872;28;20480;-76
2021/04/10 08:59:40;;;;;;;0.93;0.80;;;11.50;99.90;;;;;;5050871;28;20468;-76
2021/04/10 09:02:19;;;;;;;0.87;0.87;;;11.50;99.90;;;;;;5039971;28;20552;-76
2021/04/10 09:04:58;;;;;;;0.70;0.70;;;11.30;99.90;;;;;;5043014;28;20971;-76
2021/04/10 09:08:02;;;;;;;1.50;0.90;;;11.30;99.90;;;;;;5046037;28;20459;-76
2021/04/10 09:10:49;;;;;;;1.53;0.63;;;11.20;99.90;;;;;;5047846;28;20986;-77
2021/04/10 09:13:46;;;;;;;2.10;1.00;;;11.30;97.50;;;;;;5045573;28;20478;-77
2021/04/10 09:16:28;;;;;;;1.23;0.77;;;11.20;96.80;;;;;;5049066;28;20579;-76
2021/04/10 09:19:01;;;;;;;0.70;0.70;;;11.30;96.70;;;;;;5049467;28;20547;-77
2021/04/10 09:21:43;;;;;;;0.83;0.83;;;11.40;97.10;;;;;;5039657;28;20463;-77
2021/04/10 09:24:35;;;;;;;1.70;0.90;;;11.40;96.50;;;;;;5046578;28;20469;-75
2021/04/10 09:27:06;;;;;;;1.20;0.80;;;11.40;95.00;;;;;;5053022;28;20664;-77
2021/04/10 09:29:49;;;;;;;2.37;1.90;;;11.50;94.00;;;;;;5052444;28;21103;-75
2021/04/10 09:32:38;;;;;;;0.90;0.80;;;11.80;95.30;;;;;;5057973;28;20476;-75
2021/04/10 09:35:17;;;;;;;1.10;0.70;;;12.00;91.60;;;;;;5050798;28;20480;-77
2021/04/10 09:37:52;;;;;;;1.17;0.70;;;11.70;86.40;;;;;;5050041;28;20494;-77
2021/04/10 09:40:49;;;;;;;0.60;0.60;;;11.50;86.70;;;;;;5050883;28;20461;-77
2021/04/10 09:43:22;;;;;;;1.97;0.70;;;11.60;88.50;;;;;;5053134;28;20484;-78
2021/04/10 09:45:51;;;;;;;0.77;0.60;;;11.50;86.50;;;;;;5049854;28;20484;-77
2021/04/10 09:48:31;;;;;;;3.23;2.10;;;11.60;85.80;;;;;;5051465;28;20461;-77
2021/04/10 09:51:07;;;;;;;1.80;1.10;;;11.70;87.70;;;;;;5043316;28;21325;-75
2021/04/10 09:53:35;;;;;;;1.20;1.10;;;11.90;83.70;;;;;;5048274;28;20492;-76
2021/04/10 09:56:08;;;;;;;0.90;0.80;;;11.90;81.80;;;;;;5053655;28;20480;-77
2021/04/10 09:58:41;;;;;;;1.03;0.70;;;12.00;80.40;;;;;;5049919;28;20464;-77
2021/04/10 10:01:15;;;;;;;0.60;0.60;;;12.00;79.20;;;;;;5048776;28;20471;-78
2021/04/10 10:03:45;;;;;;;0.80;0.70;;;12.10;76.60;;;;;;5045769;28;20462;-78
2021/04/10 10:06:21;;;;;;;0.80;0.70;;;12.00;74.30;;;;;;5047075;28;20827;-80
2021/04/10 10:08:48;;;;;;;1.00;0.70;;;11.90;72.40;;;;;;5055452;28;20491;-79
2021/04/10 10:11:17;;;;;;;0.93;0.83;;;11.80;69.30;;;;;;5043086;28;20462;-78
2021/04/10 10:13:45;;;;;;;0.70;0.70;;;12.00;72.70;;;;;;5054231;28;20559;-78
2021/04/10 10:16:13;;;;;;;0.83;0.70;;;12.20;73.10;;;;;;5047398;28;20485;-77
2021/04/10 10:18:42;;;;;;;0.90;0.80;;;12.30;71.70;;;;;;5050493;28;20481;-80
2021/04/10 10:21:12;;;;;;;0.80;0.80;;;12.50;69.80;;;;;;5055015;28;20461;-78
2021/04/10 10:23:41;;;;;;;0.73;0.73;;;12.40;69.20;;;;;;5044121;28;20557;-76
2021/04/10 10:26:11;;;;;;;1.90;0.83;;;12.50;71.10;;;;;;5051243;28;20473;-76
2021/04/10 10:28:41;;;;;;;1.53;0.80;;;12.50;69.90;;;;;;5054643;28;20550;-78
2021/04/10 10:31:11;;;;;;;1.10;0.80;;;12.30;68.80;;;;;;5052750;28;20847;-77
2021/04/10 10:33:40;;;;;;;3.03;1.00;;;12.40;70.50;;;;;;5051497;28;20553;-79
2021/04/10 10:36:08;;;;;;;1.37;0.70;;;12.40;70.40;;;;;;5060206;28;20460;-75
2021/04/10 10:38:38;;;;;;;1.10;0.90;;;12.40;71.50;;;;;;5052697;28;20803;-78
2021/04/10 10:41:06;;;;;;;0.70;0.70;;;12.50;72.80;;;;;;5050972;28;20470;-76
2021/04/10 10:43:35;;;;;;;1.33;0.60;;;12.50;71.20;;;;;;5055464;28;20480;-79
2021/04/10 10:46:04;;;;;;;0.60;0.60;;;12.30;69.20;;;;;;5045268;28;20461;-79
2021/04/10 10:48:32;;;;;;;1.40;0.70;;;12.20;68.30;;;;;;5052207;28;20468;-80
2021/04/10 10:51:09;;;;;;;1.30;0.70;;;12.40;72.40;;;;;;5049800;28;20466;-79
2021/04/10 10:53:39;;;;;;;0.93;0.80;;;12.60;72.50;;;;;;5051782;28;20493;-82
2021/04/10 10:56:12;;;;;;;1.80;0.63;;;12.90;74.00;;;;;;5053277;28;20460;-81
2021/04/10 10:58:42;;;;;;;1.63;0.90;;;13.00;72.20;;;;;;5052252;28;20545;-80
2021/04/10 11:01:15;;;;;;;0.90;0.70;;;13.10;69.80;;;;;;5044010;28;20456;-79
2021/04/10 11:03:50;;;;;;;0.90;0.80;;;13.00;66.50;;;;;;5048859;28;21005;-82
2021/04/10 11:06:20;;;;;;;3.67;2.23;;;13.20;74.20;;;;;;5057386;28;20471;-78
2021/04/10 11:08:48;;;;;;;1.80;1.27;;;13.30;71.20;;;;;;5059748;28;20447;-82
2021/04/10 11:11:16;;;;;;;3.00;1.52;;;13.40;69.40;;;;;;5059228;28;20794;-81
2021/04/10 11:13:46;;;;;;;0.80;0.80;;;13.40;70.10;;;;;;5056888;28;20219;-81
2021/04/10 11:16:14;;;;;;;0.87;0.73;;;13.50;68.40;;;;;;5062346;28;20453;-80
2021/04/10 11:18:42;;;;;;;1.40;1.30;;;13.40;65.10;;;;;;5050585;28;20462;-78
2021/04/10 11:21:18;;;;;;;0.73;0.70;;;13.40;65.30;;;;;;5060990;28;20456;-80
2021/04/10 11:23:56;;;;;;;1.10;0.70;;;13.50;62.10;;;;;;5053403;28;20497;-76
2021/04/10 11:26:34;;;;;;;0.70;0.70;;;13.50;61.80;;;;;;5057157;28;20449;-83
2021/04/10 11:29:32;;;;;;;0.60;0.60;;;13.60;79.40;;;;;;5046552;28;20463;-78
2021/04/10 11:32:28;;;;;;;1.40;0.70;;;13.70;60.90;;;;;;5047612;28;21089;-82
2021/04/10 11:35:02;;;;;;;1.30;0.50;;;13.80;60.50;;;;;;5054484;28;20470;-78
2021/04/10 11:37:48;;;;;;;0.80;0.70;;;13.80;59.30;;;;;;5050382;28;20557;-80
2021/04/10 11:40:25;;;;;;;0.90;0.83;;;13.80;58.10;;;;;;5055273;28;20544;-78
2021/04/10 11:42:53;;;;;;;2.30;0.90;;;13.70;56.60;;;;;;5045902;28;20486;-80
2021/04/10 11:45:30;;;;;;;0.67;0.67;;;13.80;57.50;;;;;;5040171;28;20464;-79
2021/04/10 11:48:13;;;;;;;0.77;0.70;;;13.90;56.80;;;;;;5049522;28;20827;-79
2021/04/10 11:50:46;;;;;;;1.30;0.63;;;13.90;57.90;;;;;;5043710;28;20557;-77
2021/04/10 11:53:36;;;;;;;3.03;0.63;;;14.00;58.70;;;;;;5045929;28;20480;-79
2021/04/10 11:56:26;;;;;;;1.10;1.00;;;14.00;57.90;;;;;;5039863;28;20491;-79
2021/04/10 11:59:00;;;;;;;1.33;0.60;;;14.10;58.90;;;;;;5043838;28;20460;-78
2021/04/10 12:01:28;;;;;;;1.27;0.80;;;14.00;57.30;;;;;;5046734;28;20460;-79
2021/04/10 12:04:02;;;;;;;0.60;0.60;;;14.20;56.50;;;;;;5043731;28;20468;-77
2021/04/10 12:06:31;;;;;;;0.70;0.70;;;14.30;57.80;;;;;;5041861;28;20468;-80
2021/04/10 12:09:04;;;;;;;0.60;0.60;;;14.30;60.50;;;;;;5045395;28;20451;-77
2021/04/10 12:11:31;;;;;;;1.00;0.77;;;14.40;59.00;;;;;;5042565;28;20459;-79
2021/04/10 12:13:59;;;;;;;1.20;0.80;;;14.50;60.70;;;;;;5043116;28;20480;-80
2021/04/10 12:16:26;;;;;;;0.80;0.80;;;14.40;61.80;;;;;;5049425;28;20482;-79
2021/04/10 12:18:53;;;;;;;2.20;0.70;;;14.50;62.30;;;;;;5044443;28;20460;-82
2021/04/10 12:21:21;;;;;;;0.70;0.70;;;14.60;67.30;;;;;;5051421;28;20546;-80
2021/04/10 12:23:48;;;;;;;0.67;0.67;;;14.70;68.80;;;;;;5058326;28;21238;-79
2021/04/10 12:26:16;;;;;;;1.80;0.80;;;14.80;68.90;;;;;;5058075;28;20478;-78
2021/04/10 12:28:44;;;;;;;1.03;0.70;;;14.80;68.70;;;;;;5050870;28;21119;-81
2021/04/10 12:31:11;;;;;;;0.70;0.70;;;15.00;71.40;;;;;;5057588;28;20463;-78
2021/04/10 12:33:38;;;;;;;0.80;0.60;;;15.10;73.80;;;;;;5053987;28;20883;-79
2021/04/10 12:36:07;;;;;;;1.43;0.70;;;15.20;74.40;;;;;;5049525;28;20479;-79
2021/04/10 12:38:34;;;;;;;0.70;0.70;;;15.10;59.70;;;;;;5049743;28;20451;-80
2021/04/10 12:41:02;;;;;;;0.70;0.70;;;15.20;58.40;;;;;;5057789;28;20897;-78
2021/04/10 12:43:30;;;;;;;1.40;0.60;;;15.20;56.40;;;;;;5048435;28;20490;-79
2021/04/10 12:45:57;;;;;;;1.70;0.60;;;15.30;51.10;;;;;;5068440;28;20457;-80
2021/04/10 12:48:25;;;;;;;0.97;0.63;;;15.30;44.80;;;;;;5046468;28;21058;-78
2021/04/10 12:50:52;;;;;;;0.90;0.70;;;15.30;38.50;;;;;;5070142;28;20473;-78
2021/04/10 12:53:19;;;;;;;0.80;0.80;;;15.20;36.90;;;;;;5048982;28;20603;-78
2021/04/10 12:55:47;;;;;;;0.67;0.60;;;15.30;38.80;;;;;;5048550;28;20454;-78
2021/04/10 12:58:14;;;;;;;0.63;0.63;;;15.30;26.40;;;;;;5050427;28;20506;-80
2021/04/10 13:00:42;;;;;;;2.00;0.70;;;15.40;22.90;;;;;;5049589;28;21286;-76
2021/04/10 13:03:09;;;;;;;1.73;0.70;;;15.30;19.80;;;;;;5043814;28;20588;-79
2021/04/10 13:05:36;;;;;;;0.70;0.60;;;15.30;19.00;;;;;;5059418;28;20459;-81
2021/04/10 13:08:04;;;;;;;0.70;0.60;;;15.40;18.20;;;;;;5051022;28;20462;-78